Time;durP1;ratioP1;P1;durP2;ratioP2;P2;SDS_P1;SDS_P2;PMS_P1;PMS_P2;Temp;Humidity;BMP_temperature;BMP_pressure;BME280_temperature;BME280_humidity;BME280_pressure;Samples;Min_cycle;Max_cycle;Signal;HPM_P1;HPM_P2
2024/01/21 00:01:58;;;;;;;20.38;8.93;;;;;;;-3.18;100.00;101480.31;6257637;28;20066;-69
2024/01/21 00:05:00;;;;;;;23.60;9.55;;;;;;;-3.22;100.00;101476.00;6255151;28;20064;-69
2024/01/21 00:08:01;;;;;;;12.55;7.07;;;;;;;-3.25;100.00;101473.41;6265046;28;20112;-70
2024/01/21 00:11:02;;;;;;;16.55;7.32;;;;;;;-3.26;100.00;101469.97;6259866;28;20450;-69
2024/01/21 00:14:03;;;;;;;20.88;8.68;;;;;;;-3.36;100.00;101459.56;6270748;28;20048;-70
2024/01/21 00:17:05;;;;;;;17.70;9.35;;;;;;;-3.30;100.00;101465.63;6272108;28;20059;-70
2024/01/21 00:20:06;;;;;;;15.27;6.72;;;;;;;-3.28;100.00;101469.09;6275820;28;20052;-69
2024/01/21 00:23:08;;;;;;;13.00;6.60;;;;;;;-3.33;100.00;101469.84;6275464;28;20483;-69
2024/01/21 00:26:09;;;;;;;7.82;5.00;;;;;;;-3.29;100.00;101463.97;6267180;28;20049;-69
2024/01/21 00:29:10;;;;;;;9.27;5.13;;;;;;;-3.39;100.00;101462.06;6273873;28;20498;-69
2024/01/21 00:32:11;;;;;;;7.90;5.50;;;;;;;-3.36;100.00;101457.00;6255014;28;20045;-69
2024/01/21 00:35:12;;;;;;;21.10;6.10;;;;;;;-3.33;100.00;101460.50;6271436;28;20053;-69
2024/01/21 00:38:13;;;;;;;8.05;5.60;;;;;;;-3.48;100.00;101455.97;6266592;28;20060;-69
2024/01/21 00:41:15;;;;;;;12.63;6.60;;;;;;;-3.40;100.00;101468.00;6265003;28;20049;-69
2024/01/21 00:44:18;;;;;;;10.93;5.45;;;;;;;-3.41;100.00;101482.47;6267893;28;20072;-69
2024/01/21 00:47:20;;;;;;;8.07;5.18;;;;;;;-3.48;100.00;101490.81;6272680;28;20051;-69
2024/01/21 00:50:22;;;;;;;10.07;5.60;;;;;;;-3.54;100.00;101485.59;6268159;28;20060;-69
2024/01/21 00:53:23;;;;;;;7.82;5.38;;;;;;;-3.54;100.00;101483.91;6270406;28;20158;-69
2024/01/21 00:56:24;;;;;;;11.75;6.35;;;;;;;-3.53;100.00;101483.06;6275466;28;20124;-73
2024/01/21 00:59:25;;;;;;;10.48;6.97;;;;;;;-3.60;100.00;101475.25;6273513;28;20534;-70
2024/01/21 01:02:26;;;;;;;6.78;4.47;;;;;;;-3.67;100.00;101487.03;6275637;28;20045;-70
2024/01/21 01:05:28;;;;;;;10.05;5.88;;;;;;;-3.75;100.00;101491.97;6256226;28;20049;-73
2024/01/21 01:08:29;;;;;;;9.25;6.25;;;;;;;-3.67;100.00;101490.44;6253806;28;20099;-74
2024/01/21 01:11:30;;;;;;;10.07;5.45;;;;;;;-3.62;100.00;101494.78;6259398;28;20459;-74
2024/01/21 01:14:31;;;;;;;14.75;6.47;;;;;;;-3.67;100.00;101476.84;6271875;28;20525;-73
2024/01/21 01:17:32;;;;;;;13.70;5.22;;;;;;;-3.70;100.00;101475.09;6274360;28;20056;-73
2024/01/21 01:20:33;;;;;;;10.80;6.65;;;;;;;-3.77;100.00;101470.69;6275151;28;20049;-73
2024/01/21 01:23:34;;;;;;;8.30;4.95;;;;;;;-3.81;100.00;101483.34;6275296;28;20084;-73
2024/01/21 01:26:35;;;;;;;9.25;5.47;;;;;;;-3.75;100.00;101471.56;6275084;28;20053;-73
2024/01/21 01:29:36;;;;;;;8.30;5.35;;;;;;;-3.70;100.00;101466.59;6275333;28;20057;-69
2024/01/21 01:32:37;;;;;;;16.00;7.22;;;;;;;-3.76;100.00;101474.97;6275169;28;20130;-69
2024/01/21 01:35:38;;;;;;;13.07;6.45;;;;;;;-3.73;100.00;101472.47;6275005;28;20049;-69
2024/01/21 01:38:39;;;;;;;15.10;8.15;;;;;;;-3.67;100.00;101480.25;6274764;28;20052;-69
2024/01/21 01:41:40;;;;;;;19.08;8.02;;;;;;;-3.70;100.00;101474.25;6274812;28;20049;-69
2024/01/21 01:44:42;;;;;;;10.23;5.63;;;;;;;-3.73;100.00;101482.66;6274494;28;20061;-69
2024/01/21 01:47:43;;;;;;;13.18;5.72;;;;;;;-3.77;100.00;101485.97;6274782;28;20068;-69
2024/01/21 01:50:44;;;;;;;13.75;6.88;;;;;;;-3.79;100.00;101474.88;6291065;28;20499;-69
2024/01/21 01:53:45;;;;;;;12.05;6.47;;;;;;;-3.85;100.00;101477.31;6298953;28;20049;-69
2024/01/21 01:56:46;;;;;;;12.35;6.75;;;;;;;-3.84;100.00;101486.69;6292047;28;20507;-69
2024/01/21 01:59:47;;;;;;;12.80;5.40;;;;;;;-3.88;100.00;101492.56;6274722;28;20061;-69
2024/01/21 02:02:49;;;;;;;10.60;5.82;;;;;;;-3.81;100.00;101501.19;6292084;28;20041;-70
2024/01/21 02:05:50;;;;;;;14.10;7.63;;;;;;;-3.78;100.00;101526.78;6284596;28;20053;-73
2024/01/21 02:08:51;;;;;;;12.07;6.75;;;;;;;-3.77;100.00;101519.16;6276840;28;20407;-73
2024/01/21 02:11:52;;;;;;;9.40;5.82;;;;;;;-3.74;100.00;101521.78;6295866;28;20388;-70
2024/01/21 02:14:53;;;;;;;19.00;7.28;;;;;;;-3.75;100.00;101526.84;6273858;28;20052;-73
2024/01/21 02:17:54;;;;;;;13.95;7.03;;;;;;;-3.76;100.00;101543.00;6273967;28;20407;-73
2024/01/21 02:20:55;;;;;;;15.85;7.20;;;;;;;-3.78;100.00;101548.06;6297744;28;20060;-73
2024/01/21 02:23:56;;;;;;;9.60;6.30;;;;;;;-3.75;100.00;101537.03;6296858;28;20048;-73
2024/01/21 02:26:58;;;;;;;13.25;8.50;;;;;;;-3.73;100.00;101538.78;6294212;28;20096;-74
2024/01/21 02:29:59;;;;;;;19.40;9.57;;;;;;;-3.74;100.00;101538.78;6272974;28;20135;-74
2024/01/21 02:33:00;;;;;;;12.00;7.47;;;;;;;-3.83;100.00;101538.56;6273544;28;20480;-73
2024/01/21 02:36:00;;;;;;;13.00;7.47;;;;;;;-3.88;100.00;101538.47;6267077;28;20049;-73
2024/01/21 02:39:02;;;;;;;11.80;7.32;;;;;;;-3.82;100.00;101542.84;6273106;28;20059;-73
2024/01/21 02:42:03;;;;;;;13.20;6.53;;;;;;;-3.80;100.00;101542.06;6268452;28;20075;-73
2024/01/21 02:45:04;;;;;;;14.02;6.68;;;;;;;-3.79;100.00;101538.66;6270970;28;20171;-73
2024/01/21 02:48:06;;;;;;;13.38;6.30;;;;;;;-3.85;100.00;101548.72;6272393;28;20543;-69
2024/01/21 02:51:12;;;;;;;17.80;7.03;;;;;;;-3.81;100.00;101547.97;6270465;28;20049;-73
2024/01/21 02:54:13;;;;;;;9.95;6.75;;;;;;;-3.86;100.00;101539.38;6270297;28;20136;-73
2024/01/21 02:57:14;;;;;;;15.15;6.38;;;;;;;-3.92;100.00;101534.13;6275099;28;20055;-69
2024/01/21 03:00:15;;;;;;;13.35;6.78;;;;;;;-3.99;100.00;101540.78;6272521;28;20061;-69
2024/01/21 03:03:16;;;;;;;14.60;6.68;;;;;;;-3.98;100.00;101544.19;6270758;28;20106;-69
2024/01/21 03:06:18;;;;;;;13.63;6.78;;;;;;;-3.99;100.00;101551.00;6274024;28;20044;-69
2024/01/21 03:09:19;;;;;;;11.25;6.32;;;;;;;-3.99;100.00;101553.53;6272326;28;20142;-68
2024/01/21 03:12:20;;;;;;;11.13;6.13;;;;;;;-3.98;100.00;101562.03;6296853;28;20053;-69
2024/01/21 03:15:21;;;;;;;12.10;6.97;;;;;;;-3.97;100.00;101551.88;6293164;28;20494;-69
2024/01/21 03:18:22;;;;;;;9.93;5.78;;;;;;;-4.00;100.00;101567.09;6272222;28;20057;-69
2024/01/21 03:21:23;;;;;;;12.45;6.95;;;;;;;-3.98;100.00;101570.56;6269569;28;20132;-73
2024/01/21 03:24:24;;;;;;;16.23;7.53;;;;;;;-3.98;100.00;101577.34;6275902;28;20059;-73
2024/01/21 03:27:25;;;;;;;13.75;7.38;;;;;;;-3.93;100.00;101585.94;6279132;28;20048;-73
2024/01/21 03:30:26;;;;;;;17.27;7.90;;;;;;;-3.98;100.00;101582.44;6284187;28;20064;-73
2024/01/21 03:33:27;;;;;;;16.27;8.30;;;;;;;-4.11;100.00;101579.63;6274785;28;20102;-74
2024/01/21 03:36:28;;;;;;;14.05;7.13;;;;;;;-4.06;100.00;101579.72;6296026;28;20049;-69
2024/01/21 03:39:29;;;;;;;12.45;7.70;;;;;;;-4.08;100.00;101579.69;6296889;28;20139;-69
2024/01/21 03:42:30;;;;;;;10.30;5.75;;;;;;;-4.16;100.00;101581.22;6290489;28;20057;-69
2024/01/21 03:45:31;;;;;;;12.32;7.47;;;;;;;-4.15;100.00;101585.47;6278097;28;20052;-69
2024/01/21 03:48:32;;;;;;;15.20;7.43;;;;;;;-4.19;100.00;101581.13;6276218;28;20056;-69
2024/01/21 03:51:33;;;;;;;16.70;7.68;;;;;;;-4.21;100.00;101589.56;6296950;28;20048;-68
2024/01/21 03:54:34;;;;;;;9.80;6.57;;;;;;;-4.20;100.00;101584.50;6288438;28;20132;-69
2024/01/21 03:57:36;;;;;;;20.58;8.38;;;;;;;-4.34;100.00;101598.59;6271712;28;20499;-69
2024/01/21 04:00:37;;;;;;;14.73;6.77;;;;;;;-4.24;100.00;101590.34;6271727;28;20071;-70
2024/01/21 04:03:38;;;;;;;17.13;8.10;;;;;;;-4.22;100.00;101592.91;6272213;28;20049;-69
2024/01/21 04:06:43;;;;;;;17.13;7.43;;;;;;;-4.27;100.00;101593.66;6276179;28;20057;-69
2024/01/21 04:09:44;;;;;;;16.25;7.43;;;;;;;-4.25;100.00;101589.47;6292702;28;20056;-69
2024/01/21 04:12:45;;;;;;;11.85;7.30;;;;;;;-4.24;100.00;101580.16;6290684;28;20464;-69
2024/01/21 04:15:46;;;;;;;18.67;8.07;;;;;;;-4.22;100.00;101588.72;6271761;28;20048;-69
2024/01/21 04:18:47;;;;;;;18.30;9.82;;;;;;;-4.32;100.00;101597.81;6271973;28;20080;-69
2024/01/21 04:21:48;;;;;;;15.05;7.43;;;;;;;-4.37;100.00;101606.16;6270343;28;20476;-69
2024/01/21 04:24:49;;;;;;;12.65;7.00;;;;;;;-4.44;100.00;101596.66;6270636;28;20160;-69
2024/01/21 04:27:50;;;;;;;11.93;7.72;;;;;;;-4.42;100.00;101606.03;6276743;28;20094;-73
2024/01/21 04:30:52;;;;;;;13.85;7.60;;;;;;;-4.44;100.00;101599.19;6296603;28;20414;-73
2024/01/21 04:33:53;;;;;;;10.63;6.13;;;;;;;-4.62;100.00;101609.78;6296721;28;20045;-73
2024/01/21 04:36:54;;;;;;;20.13;8.65;;;;;;;-4.72;100.00;101614.59;6266194;28;20388;-73
2024/01/21 04:39:55;;;;;;;21.60;8.13;;;;;;;-4.67;100.00;101630.88;6265010;28;20144;-73
2024/01/21 04:42:56;;;;;;;11.90;5.70;;;;;;;-4.60;100.00;101623.41;6271482;28;20127;-73
2024/01/21 04:45:57;;;;;;;28.98;9.80;;;;;;;-4.56;100.00;101622.66;6290257;28;20136;-73
2024/01/21 04:48:58;;;;;;;13.27;7.57;;;;;;;-4.59;100.00;101627.66;6296405;28;20143;-73
2024/01/21 04:51:59;;;;;;;14.10;8.32;;;;;;;-4.59;100.00;101632.75;6296440;28;20372;-73
2024/01/21 04:55:00;;;;;;;15.80;8.18;;;;;;;-4.72;100.00;101634.13;6287418;28;20095;-73
2024/01/21 04:58:02;;;;;;;12.90;7.03;;;;;;;-4.79;100.00;101629.72;6300727;28;20139;-69
2024/01/21 05:01:03;;;;;;;22.83;10.55;;;;;;;-4.80;100.00;101625.41;6298028;28;20055;-69
2024/01/21 05:04:04;;;;;;;25.60;10.23;;;;;;;-4.79;100.00;101627.16;6290428;28;20048;-69
2024/01/21 05:07:05;;;;;;;26.00;12.70;;;;;;;-4.84;100.00;101618.50;6285185;28;20104;-69
2024/01/21 05:10:06;;;;;;;20.83;10.88;;;;;;;-4.86;100.00;101641.38;6273551;28;20059;-69
2024/01/21 05:13:08;;;;;;;21.35;9.73;;;;;;;-5.23;100.00;101649.66;6257850;28;20080;-73
2024/01/21 05:16:09;;;;;;;14.20;8.30;;;;;;;-5.23;100.00;101662.41;6258148;28;20097;-73
2024/01/21 05:19:09;;;;;;;18.63;9.52;;;;;;;-5.08;100.00;101668.81;6263506;28;20500;-73
2024/01/21 05:22:10;;;;;;;15.85;10.07;;;;;;;-5.00;100.00;101668.16;6261249;28;20049;-73
2024/01/21 05:25:11;;;;;;;15.35;9.02;;;;;;;-5.13;100.00;101674.56;6265393;28;20052;-74
2024/01/21 05:28:12;;;;;;;21.23;10.18;;;;;;;-5.09;100.00;101672.16;6273201;28;20492;-73
2024/01/21 05:31:13;;;;;;;16.73;9.48;;;;;;;-5.12;100.00;101682.25;6273551;28;20053;-74
2024/01/21 05:34:14;;;;;;;18.95;10.45;;;;;;;-5.02;100.00;101679.97;6271466;28;20063;-69
2024/01/21 05:37:15;;;;;;;21.40;12.18;;;;;;;-5.03;100.00;101679.09;6256111;28;20069;-69
2024/01/21 05:40:16;;;;;;;22.67;12.23;;;;;;;-5.07;100.00;101677.28;6259349;28;20155;-69
2024/01/21 05:43:17;;;;;;;21.83;12.32;;;;;;;-5.12;100.00;101681.41;6254197;28;20628;-69
2024/01/21 05:46:18;;;;;;;19.50;10.23;;;;;;;-5.12;100.00;101681.41;6265767;28;20049;-69
2024/01/21 05:49:19;;;;;;;18.35;10.15;;;;;;;-5.14;100.00;101673.72;6260407;28;20064;-69
2024/01/21 05:52:21;;;;;;;24.17;11.40;;;;;;;-5.17;100.00;101678.69;6252373;28;20042;-69
2024/01/21 05:55:22;;;;;;;18.95;11.27;;;;;;;-5.22;100.00;101685.34;6271373;28;20389;-69
2024/01/21 05:58:23;;;;;;;17.20;10.40;;;;;;;-5.19;100.00;101689.66;6272159;28;20057;-69
2024/01/21 06:01:24;;;;;;;29.08;14.05;;;;;;;-5.28;100.00;101685.16;6258991;28;20122;-69
2024/01/21 06:04:25;;;;;;;27.20;12.45;;;;;;;-5.25;100.00;101680.19;6269230;28;20076;-69
2024/01/21 06:07:26;;;;;;;27.80;12.75;;;;;;;-5.30;100.00;101684.25;6265595;28;20148;-69
2024/01/21 06:10:27;;;;;;;32.40;11.90;;;;;;;-5.28;100.00;101683.47;6267068;28;20052;-73
2024/01/21 06:13:29;;;;;;;24.48;12.05;;;;;;;-5.26;100.00;101692.03;6264045;28;20045;-74
2024/01/21 06:16:30;;;;;;;21.55;10.82;;;;;;;-5.28;100.00;101705.53;6260252;28;20052;-69
2024/01/21 06:19:31;;;;;;;18.88;11.15;;;;;;;-5.23;100.00;101706.50;6257690;28;20057;-69
2024/01/21 06:22:32;;;;;;;29.92;13.15;;;;;;;-5.24;100.00;101701.41;6267139;28;20106;-73
2024/01/21 06:25:33;;;;;;;43.97;16.63;;;;;;;-5.36;100.00;101701.88;6273612;28;20056;-73
2024/01/21 06:28:33;;;;;;;24.90;13.50;;;;;;;-5.33;100.00;101717.25;6272455;28;20049;-73
2024/01/21 06:31:35;;;;;;;26.00;12.05;;;;;;;-5.40;100.00;101720.41;6262101;28;20045;-73
2024/01/21 06:34:36;;;;;;;23.13;12.48;;;;;;;-5.34;100.00;101721.47;6254044;28;20474;-73
2024/01/21 06:37:37;;;;;;;22.80;11.65;;;;;;;-5.27;100.00;101717.44;6268090;28;20060;-73
2024/01/21 06:40:38;;;;;;;20.20;10.98;;;;;;;-5.17;100.00;101721.13;6262958;28;20056;-75
2024/01/21 06:43:39;;;;;;;26.33;14.82;;;;;;;-5.21;100.00;101719.28;6275318;28;20075;-73
2024/01/21 06:46:40;;;;;;;20.42;11.68;;;;;;;-5.12;100.00;101727.22;6281239;28;20052;-73
2024/01/21 06:49:41;;;;;;;20.83;11.82;;;;;;;-5.16;100.00;101720.31;6293190;28;20455;-73
2024/01/21 06:52:41;;;;;;;18.08;11.65;;;;;;;-5.02;100.00;101730.88;6297259;28;20139;-73
2024/01/21 06:55:46;;;;;;;24.00;13.40;;;;;;;-4.94;100.00;101735.41;6286258;28;20056;-73
2024/01/21 06:58:47;;;;;;;23.80;14.57;;;;;;;-4.94;100.00;101743.03;6297770;28;20048;-73
2024/01/21 07:01:48;;;;;;;26.42;13.88;;;;;;;-4.81;100.00;101749.34;6295868;28;20402;-73
2024/01/21 07:04:49;;;;;;;20.90;12.52;;;;;;;-4.75;100.00;101756.31;6285287;28;21468;-74
2024/01/21 07:07:50;;;;;;;26.52;14.88;;;;;;;-4.60;100.00;101766.94;6276429;28;20491;-74
2024/01/21 07:10:52;;;;;;;31.80;17.08;;;;;;;-4.47;100.00;101771.56;6281770;28;20059;-73
2024/01/21 07:13:52;;;;;;;27.75;15.73;;;;;;;-4.31;100.00;101777.06;6280103;28;20049;-73
2024/01/21 07:16:53;;;;;;;30.55;13.65;;;;;;;-4.18;100.00;101784.25;6265642;28;20090;-73
2024/01/21 07:19:54;;;;;;;20.25;11.63;;;;;;;-3.95;100.00;101789.09;6270457;28;20049;-74
2024/01/21 07:22:58;;;;;;;20.50;11.48;;;;;;;-3.90;100.00;101798.56;6272515;28;20044;-74
2024/01/21 07:25:59;;;;;;;15.90;9.07;;;;;;;-3.71;100.00;101801.59;6266183;28;20068;-73
2024/01/21 07:29:00;;;;;;;22.40;11.23;;;;;;;-3.47;100.00;101802.22;6272563;28;20059;-74
2024/01/21 07:32:01;;;;;;;23.15;10.73;;;;;;;-3.45;100.00;101803.09;6272989;28;20045;-73
2024/01/21 07:35:03;;;;;;;19.17;11.57;;;;;;;-3.30;100.00;101797.50;6287517;28;20056;-74
2024/01/21 07:38:04;;;;;;;23.67;11.80;;;;;;;-3.36;100.00;101802.47;6280326;28;20411;-74
2024/01/21 07:41:06;;;;;;;26.17;11.27;;;;;;;-3.35;100.00;101798.25;6271709;28;20115;-74
2024/01/21 07:44:06;;;;;;;21.63;13.23;;;;;;;-3.11;100.00;101803.03;6270073;28;20080;-73
2024/01/21 07:47:09;;;;;;;32.33;15.40;;;;;;;-2.89;100.00;101810.38;6270033;28;20075;-73
2024/01/21 07:50:10;;;;;;;32.97;16.13;;;;;;;-2.64;100.00;101818.56;6269664;28;20504;-74
2024/01/21 07:53:11;;;;;;;36.15;15.85;;;;;;;-2.41;100.00;101819.03;6269566;28;20132;-69
2024/01/21 07:56:13;;;;;;;37.35;14.88;;;;;;;-2.26;100.00;101814.25;6270006;28;20053;-69
2024/01/21 07:59:13;;;;;;;39.25;15.15;;;;;;;-2.12;100.00;101811.09;6269618;28;20053;-69
2024/01/21 08:02:15;;;;;;;27.50;14.90;;;;;;;-1.80;100.00;101828.75;6271173;28;20052;-69
2024/01/21 08:05:20;;;;;;;21.52;12.35;;;;;;;-1.51;100.00;101830.13;6270046;28;20092;-69
2024/01/21 08:08:22;;;;;;;37.58;15.73;;;;;;;-1.13;100.00;101829.91;6271104;28;20061;-69
2024/01/21 08:11:23;;;;;;;22.48;13.93;;;;;;;-1.02;100.00;101810.41;6270559;28;20052;-69
2024/01/21 08:14:24;;;;;;;25.17;13.75;;;;;;;-0.88;100.00;101814.88;6271085;28;20056;-70
2024/01/21 08:17:25;;;;;;;35.67;18.95;;;;;;;-0.54;100.00;101816.19;6269900;28;20049;-69
2024/01/21 08:20:26;;;;;;;23.63;14.45;;;;;;;-0.76;100.00;101814.19;6269889;28;20415;-74
2024/01/21 08:23:29;;;;;;;36.67;19.77;;;;;;;-0.71;100.00;101822.81;6256594;28;20044;-74
2024/01/21 08:26:30;;;;;;;24.92;14.93;;;;;;;-0.98;100.00;101821.56;6269277;28;20049;-73
2024/01/21 08:29:31;;;;;;;23.98;13.95;;;;;;;-1.00;100.00;101830.09;6273723;28;20420;-74
2024/01/21 08:32:32;;;;;;;27.05;13.70;;;;;;;-1.13;100.00;101835.03;6274431;28;20075;-74
2024/01/21 08:35:33;;;;;;;24.73;13.88;;;;;;;-1.21;100.00;101834.03;6256242;28;20053;-74
2024/01/21 08:38:34;;;;;;;29.25;14.20;;;;;;;-1.18;100.00;101835.78;6256110;28;20419;-73
2024/01/21 08:41:35;;;;;;;31.70;15.02;;;;;;;-1.08;100.00;101843.63;6273900;28;20083;-74
2024/01/21 08:44:36;;;;;;;81.10;37.00;;;;;;;-0.96;100.00;101852.34;6279690;28;20131;-69
2024/01/21 08:47:38;;;;;;;45.38;23.33;;;;;;;-1.11;100.00;101847.84;6291414;28;20052;-70
2024/01/21 08:50:40;;;;;;;;;;;;;;;-1.09;100.00;101851.28;6280563;28;20423;-69
2024/01/21 08:53:40;;;;;;;32.33;14.52;;;;;;;-0.80;100.00;101846.63;6273547;28;19921;-69
2024/01/21 08:56:41;;;;;;;28.10;15.00;;;;;;;-0.75;100.00;101852.66;6294126;28;20056;-70
2024/01/21 08:59:42;;;;;;;32.67;16.65;;;;;;;-0.58;100.00;101850.31;6274008;28;20092;-74
2024/01/21 09:02:43;;;;;;;28.80;14.05;;;;;;;-0.65;100.00;101851.09;6280249;28;20060;-73
2024/01/21 09:05:44;;;;;;;32.67;16.27;;;;;;;-0.50;100.00;101860.69;6282878;28;20055;-74
2024/01/21 09:08:45;;;;;;;25.40;14.95;;;;;;;-0.40;100.00;101859.97;6273564;28;20487;-69
2024/01/21 09:11:47;;;;;;;28.73;13.40;;;;;;;-0.10;100.00;101856.09;6274754;28;20416;-70
2024/01/21 09:14:48;;;;;;;25.17;13.85;;;;;;;-0.24;100.00;101851.63;6273008;28;20068;-70
2024/01/21 09:17:49;;;;;;;28.63;13.85;;;;;;;0.02;100.00;101851.06;6273294;28;20087;-69
2024/01/21 09:20:50;;;;;;;21.38;12.07;;;;;;;0.28;100.00;101856.47;6273339;28;20124;-69
2024/01/21 09:23:54;;;;;;;26.10;14.02;;;;;;;0.32;100.00;101845.41;6273690;28;20076;-69
2024/01/21 09:26:55;;;;;;;22.67;13.30;;;;;;;0.43;100.00;101847.22;6274241;28;20053;-70
2024/01/21 09:29:57;;;;;;;27.25;14.15;;;;;;;0.45;100.00;101841.22;6272936;28;20578;-70
2024/01/21 09:32:58;;;;;;;21.75;11.98;;;;;;;0.07;100.00;101834.03;6272305;28;20049;-70
2024/01/21 09:35:59;;;;;;;20.02;12.18;;;;;;;0.46;100.00;101836.97;6273045;28;20051;-74
2024/01/21 09:39:01;;;;;;;19.75;10.60;;;;;;;0.54;100.00;101837.91;6271727;28;20479;-69
2024/01/21 09:42:05;;;;;;;22.45;12.68;;;;;;;0.57;100.00;101837.91;6274179;28;20049;-74
2024/01/21 09:45:10;;;;;;;21.17;10.45;;;;;;;0.93;98.83;101847.66;6271729;28;20057;-74
2024/01/21 09:48:11;;;;;;;18.10;10.65;;;;;;;0.99;97.34;101847.69;6273645;28;20444;-74
2024/01/21 09:51:13;;;;;;;23.77;14.57;;;;;;;1.12;95.16;101858.06;6273534;28;20060;-71
2024/01/21 09:54:14;;;;;;;20.50;10.82;;;;;;;0.87;93.63;101854.47;6272976;28;20051;-71
2024/01/21 09:57:17;;;;;;;23.45;11.85;;;;;;;0.87;93.42;101839.91;6272252;28;20060;-70
2024/01/21 10:00:19;;;;;;;25.98;10.88;;;;;;;0.69;93.54;101852.59;6273597;28;20048;-74
2024/01/21 10:03:22;;;;;;;;;;;;;;;0.74;93.71;101858.63;6272933;28;20107;-69
2024/01/21 10:06:25;;;;;;;18.60;9.68;;;;;;;0.93;93.38;101857.94;6272046;28;20382;-69
2024/01/21 10:09:26;;;;;;;19.95;10.27;;;;;;;1.09;92.34;101858.91;6271396;28;20111;-70
2024/01/21 10:12:27;;;;;;;17.13;8.98;;;;;;;0.96;92.08;101862.22;6271867;28;20044;-74
2024/01/21 10:15:30;;;;;;;20.25;9.63;;;;;;;1.26;90.57;101855.59;6273061;28;20052;-74
2024/01/21 10:18:31;;;;;;;20.90;10.75;;;;;;;1.24;90.37;101855.56;6272893;28;20083;-74
2024/01/21 10:21:34;;;;;;;21.52;10.18;;;;;;;1.15;89.70;101858.06;6273120;28;20099;-74
2024/01/21 10:24:42;;;;;;;15.02;7.78;;;;;;;1.19;88.94;101850.41;6271545;28;20045;-74
2024/01/21 10:27:52;;;;;;;17.27;8.70;;;;;;;1.24;87.60;101845.28;6271621;28;20060;-70
2024/01/21 10:30:55;;;;;;;23.42;9.90;;;;;;;1.52;87.33;101859.16;6271271;28;20049;-69
2024/01/21 10:33:59;;;;;;;20.48;10.18;;;;;;;1.73;86.51;101871.28;6270291;28;20045;-74
2024/01/21 10:37:04;;;;;;;22.77;10.00;;;;;;;1.82;85.50;101847.28;6271513;28;20045;-74
2024/01/21 10:40:08;;;;;;;22.65;10.93;;;;;;;2.15;84.77;101859.41;6272038;28;20049;-74
2024/01/21 10:43:13;;;;;;;18.95;9.38;;;;;;;2.46;82.74;101858.63;6269547;28;20056;-74
2024/01/21 10:46:15;;;;;;;18.23;9.80;;;;;;;2.36;82.35;101856.00;6270390;28;20045;-72
2024/01/21 10:49:17;;;;;;;21.60;11.55;;;;;;;2.22;81.11;101865.41;6271030;28;20049;-68
2024/01/21 10:52:19;;;;;;;20.23;10.65;;;;;;;2.24;81.95;101868.84;6270434;28;20424;-68
2024/01/21 10:55:21;;;;;;;21.38;9.90;;;;;;;2.71;81.20;101867.22;6271036;28;20049;-68
2024/01/21 10:58:22;;;;;;;21.35;10.88;;;;;;;2.78;80.13;101862.06;6270605;28;20480;-71
2024/01/21 11:01:25;;;;;;;16.10;9.23;;;;;;;2.84;79.68;101861.19;6272161;28;20049;-72
2024/01/21 11:04:26;;;;;;;14.35;8.55;;;;;;;2.74;78.99;101859.47;6270372;28;20045;-72
2024/01/21 11:07:29;;;;;;;17.63;10.27;;;;;;;2.84;78.76;101866.34;6272902;28;21685;-74
2024/01/21 11:10:37;;;;;;;20.50;9.55;;;;;;;2.89;78.67;101861.22;6278928;28;20175;-72
2024/01/21 11:13:38;;;;;;;20.05;9.30;;;;;;;2.92;77.33;101853.47;6274761;28;20090;-75
2024/01/21 11:16:41;;;;;;;18.63;10.13;;;;;;;3.03;77.58;101859.50;6263038;28;20053;-74
2024/01/21 11:19:51;;;;;;;15.25;9.13;;;;;;;2.89;77.59;101848.31;6271558;28;20072;-74
2024/01/21 11:22:58;;;;;;;18.20;10.65;;;;;;;2.99;77.46;101857.78;6271358;28;20056;-74
2024/01/21 11:26:00;;;;;;;16.80;9.35;;;;;;;3.03;77.02;101849.19;6271513;28;20057;-74
2024/01/21 11:29:02;;;;;;;16.67;10.02;;;;;;;2.94;76.72;101842.28;6271474;28;20095;-72
2024/01/21 11:32:05;;;;;;;21.38;10.00;;;;;;;3.08;76.31;101841.44;6270573;28;20255;-72
2024/01/21 11:35:14;;;;;;;16.50;8.55;;;;;;;3.34;75.08;101843.97;6271446;28;20049;-72
2024/01/21 11:38:15;;;;;;;26.05;9.85;;;;;;;3.38;75.35;101841.38;6270368;28;20415;-72
2024/01/21 11:41:20;;;;;;;19.23;10.90;;;;;;;3.27;75.71;101837.09;6270243;28;20049;-72
2024/01/21 11:44:23;;;;;;;17.67;9.20;;;;;;;3.31;75.55;101837.06;6269749;28;20079;-72
2024/01/21 11:47:24;;;;;;;19.80;10.27;;;;;;;3.48;75.82;101839.63;6270100;28;20044;-68
2024/01/21 11:50:26;;;;;;;18.63;10.75;;;;;;;3.43;75.77;101841.34;6271318;28;20049;-68
2024/01/21 11:53:27;;;;;;;16.02;8.95;;;;;;;3.46;75.91;101836.19;6269972;28;20045;-68
2024/01/21 11:56:28;;;;;;;19.30;9.70;;;;;;;3.74;75.52;101833.50;6270015;28;20142;-68
2024/01/21 11:59:31;;;;;;;17.60;9.32;;;;;;;3.48;75.09;101843.91;6270374;28;20433;-72
2024/01/21 12:02:31;;;;;;;20.38;10.25;;;;;;;3.67;74.98;101842.16;6270996;28;20492;-72
2024/01/21 12:05:35;;;;;;;14.40;9.05;;;;;;;3.75;75.19;101840.38;6276214;28;20279;-72
2024/01/21 12:08:36;;;;;;;19.58;9.75;;;;;;;3.60;74.58;101841.28;6275000;28;20056;-72
2024/01/21 12:11:39;;;;;;;18.33;9.88;;;;;;;3.67;74.80;101836.97;6275223;28;20419;-69
2024/01/21 12:14:39;;;;;;;;;;;;;;;3.61;74.53;101838.69;6268239;28;20095;-72
2024/01/21 12:17:41;;;;;;;19.92;9.43;;;;;;;3.59;75.34;101826.69;6251410;28;19921;-74
2024/01/21 12:20:42;;;;;;;16.88;9.27;;;;;;;3.31;76.05;101834.47;6251149;28;20127;-75
2024/01/21 12:23:46;;;;;;;16.65;9.00;;;;;;;3.59;75.52;101824.94;6249979;28;20053;-72
2024/01/21 12:26:47;;;;;;;17.17;9.20;;;;;;;3.71;74.84;101826.63;6250974;28;20537;-68
2024/01/21 12:29:48;;;;;;;19.67;9.70;;;;;;;3.88;74.63;101825.69;6255617;28;20079;-69
2024/01/21 12:32:49;;;;;;;19.20;9.40;;;;;;;3.86;74.32;101833.44;6274666;28;20510;-72
2024/01/21 12:35:50;;;;;;;35.30;11.45;;;;;;;3.97;73.89;101829.06;6274396;28;20084;-68
2024/01/21 12:38:53;;;;;;;18.75;10.13;;;;;;;3.70;73.81;101829.22;6275162;28;20045;-72
2024/01/21 12:41:54;;;;;;;20.55;10.38;;;;;;;3.67;74.36;101822.34;6275657;28;20284;-72
2024/01/21 12:44:54;;;;;;;20.60;12.20;;;;;;;3.66;74.26;101828.34;6275335;28;20053;-68
2024/01/21 12:47:56;;;;;;;15.90;9.95;;;;;;;3.88;74.07;101817.94;6274196;28;20048;-68
2024/01/21 12:50:57;;;;;;;39.50;17.17;;;;;;;3.88;73.89;101821.38;6275211;28;20330;-72
2024/01/21 12:54:00;;;;;;;36.08;16.25;;;;;;;3.82;73.98;101827.41;6275089;28;20393;-68
2024/01/21 12:57:03;;;;;;;31.70;15.52;;;;;;;3.68;73.63;101828.34;6286235;28;20075;-72
2024/01/21 13:00:05;;;;;;;23.52;11.57;;;;;;;3.70;74.03;101831.78;6269252;28;20059;-72
2024/01/21 13:03:06;;;;;;;20.00;11.60;;;;;;;3.70;74.54;101822.31;6274823;28;20059;-72
2024/01/21 13:06:07;;;;;;;20.60;9.88;;;;;;;3.83;74.07;101824.00;6274933;28;20099;-72
2024/01/21 13:09:08;;;;;;;19.48;9.63;;;;;;;3.71;74.35;101824.03;6273466;28;20092;-72
2024/01/21 13:12:09;;;;;;;26.30;13.40;;;;;;;3.75;74.75;101830.06;6274606;28;20041;-72
2024/01/21 13:15:10;;;;;;;22.60;10.52;;;;;;;3.71;74.29;101828.34;6271759;28;20152;-72
2024/01/21 13:18:11;;;;;;;20.75;10.57;;;;;;;3.51;74.91;101823.25;6273185;28;20048;-72
2024/01/21 13:21:13;;;;;;;16.88;9.70;;;;;;;3.39;75.24;101817.25;6279521;28;20056;-72
2024/01/21 13:24:14;;;;;;;19.30;10.68;;;;;;;3.34;75.65;101823.31;6290991;28;20049;-72
2024/01/21 13:27:26;;;;;;;21.37;11.23;;;;;;;3.21;76.17;101818.19;6295051;28;20407;-72
2024/01/21 13:30:46;;;;;;;22.05;10.27;;;;;;;3.28;76.48;101823.34;6272158;28;20083;-72
2024/01/21 13:33:47;;;;;;;13.23;7.65;;;;;;;3.01;76.92;101822.53;6274123;28;20502;-72
2024/01/21 13:36:48;;;;;;;21.58;10.57;;;;;;;3.26;77.62;101832.81;6274056;28;20052;-72
2024/01/21 13:39:49;;;;;;;22.58;10.15;;;;;;;3.10;77.75;101832.81;6274016;28;20053;-72
2024/01/21 13:42:54;;;;;;;15.38;8.43;;;;;;;3.07;77.98;101829.38;6272737;28;20071;-68
2024/01/21 13:45:55;;;;;;;18.52;9.13;;;;;;;3.02;78.40;101834.53;6273829;28;20056;-68
2024/01/21 13:48:56;;;;;;;17.70;9.32;;;;;;;2.89;79.40;101832.84;6274365;28;20053;-72